createdAt,value
2019-06-08T00:00:49.435Z,84.90
2019-06-08T00:03:18.585Z,85.10
2019-06-08T00:05:47.344Z,85.30
2019-06-08T00:08:16.826Z,85.50
2019-06-08T00:10:45.692Z,85.40
2019-06-08T00:13:15.141Z,86.00
2019-06-08T00:15:44.092Z,86.20
2019-06-08T00:18:13.194Z,86.90
2019-06-08T00:20:41.947Z,86.30
2019-06-08T00:23:10.590Z,86.60
2019-06-08T00:25:39.367Z,86.90
2019-06-08T00:28:08.138Z,86.90
2019-06-08T00:30:37.218Z,86.90
2019-06-08T00:33:06.117Z,86.80
2019-06-08T00:35:34.824Z,87.20
2019-06-08T00:38:03.470Z,87.50
2019-06-08T00:40:32.184Z,87.50
2019-06-08T00:43:00.890Z,87.50
2019-06-08T00:45:29.588Z,87.70
2019-06-08T00:47:58.348Z,88.10
2019-06-08T00:50:27.014Z,88.10
2019-06-08T00:52:55.692Z,88.10
2019-06-08T00:55:25.615Z,88.00
2019-06-08T00:57:54.495Z,88.10
2019-06-08T01:00:24.506Z,88.10
2019-06-08T01:02:53.401Z,88.00
2019-06-08T01:05:22.107Z,88.50
2019-06-08T01:07:50.761Z,88.70
2019-06-08T01:10:21.301Z,88.70
2019-06-08T01:12:49.999Z,88.70
2019-06-08T01:15:24.791Z,88.70
2019-06-08T01:18:02.269Z,88.70
2019-06-08T01:20:19.672Z,88.50
2019-06-08T01:22:48.296Z,88.40
2019-06-08T01:25:16.940Z,88.50
2019-06-08T01:27:45.552Z,88.40
2019-06-08T01:30:14.719Z,88.50
2019-06-08T01:32:43.436Z,88.60
2019-06-08T01:35:12.073Z,88.60
2019-06-08T01:37:40.771Z,88.60
2019-06-08T01:40:11.812Z,89.30
2019-06-08T01:42:40.507Z,89.20
2019-06-08T01:45:09.790Z,89.10
2019-06-08T01:47:38.490Z,89.50
2019-06-08T01:50:07.592Z,89.40
2019-06-08T01:52:36.502Z,89.60
2019-06-08T01:55:08.327Z,89.60
2019-06-08T01:57:37.055Z,89.60
2019-06-08T02:00:29.135Z,89.90
2019-06-08T02:02:39.123Z,90.00
2019-06-08T02:05:07.926Z,90.10
2019-06-08T02:07:36.639Z,90.10
2019-06-08T02:10:09.718Z,90.10
2019-06-08T02:12:39.666Z,90.10
2019-06-08T02:15:09.095Z,90.20
2019-06-08T02:17:37.787Z,90.20
2019-06-08T02:20:06.991Z,90.20
2019-06-08T02:22:35.622Z,90.30
2019-06-08T02:25:05.043Z,90.30
2019-06-08T02:27:33.649Z,90.30
2019-06-08T02:30:02.316Z,90.30
2019-06-08T02:32:31.649Z,90.30
2019-06-08T02:35:01.351Z,90.20
2019-06-08T02:37:30.850Z,90.30
2019-06-08T02:39:59.715Z,90.30
2019-06-08T02:42:30.624Z,90.30
2019-06-08T02:44:58.861Z,90.40
2019-06-08T02:47:28.414Z,90.40
2019-06-08T02:49:57.675Z,90.40
2019-06-08T02:52:26.492Z,90.40
2019-06-08T02:54:55.755Z,90.30
2019-06-08T02:57:29.066Z,90.40
2019-06-08T03:00:00.028Z,90.30
2019-06-08T03:02:34.093Z,90.30
2019-06-08T03:05:04.227Z,90.30
2019-06-08T03:07:36.831Z,90.20
2019-06-08T03:10:06.930Z,90.20
2019-06-08T03:12:40.338Z,90.30
2019-06-08T03:15:08.918Z,90.30
2019-06-08T03:17:39.900Z,90.30
2019-06-08T03:20:08.467Z,90.30
2019-06-08T03:22:38.825Z,90.40
2019-06-08T03:25:07.503Z,90.50
2019-06-08T03:27:37.290Z,90.70
2019-06-08T03:30:16.286Z,90.70
2019-06-08T03:32:49.677Z,90.60
2019-06-08T03:35:08.244Z,90.50
2019-06-08T03:37:37.820Z,90.50
2019-06-08T03:40:09.035Z,90.40
2019-06-08T03:42:37.740Z,90.40
2019-06-08T03:45:07.605Z,90.40
2019-06-08T03:47:37.073Z,90.50
2019-06-08T03:50:07.432Z,90.50
2019-06-08T03:52:37.767Z,90.50
2019-06-08T03:55:06.778Z,90.70
2019-06-08T03:57:35.810Z,90.70
2019-06-08T04:00:13.023Z,90.70
2019-06-08T04:02:38.000Z,90.80
2019-06-08T04:05:07.859Z,90.80
2019-06-08T04:07:37.569Z,90.70
2019-06-08T04:10:06.833Z,90.70
2019-06-08T04:12:37.643Z,90.70
2019-06-08T04:15:06.676Z,90.70
2019-06-08T04:17:35.360Z,90.50
2019-06-08T04:20:10.928Z,90.50
2019-06-08T04:22:40.384Z,90.40
2019-06-08T04:25:09.611Z,90.40
2019-06-08T04:27:38.556Z,90.20
2019-06-08T04:30:08.550Z,90.00
2019-06-08T04:32:38.566Z,90.10
2019-06-08T04:35:08.137Z,90.00
2019-06-08T04:37:38.206Z,89.90
2019-06-08T04:40:09.074Z,89.50
2019-06-08T04:42:39.257Z,89.10
2019-06-08T04:45:09.343Z,88.60
2019-06-08T04:47:38.397Z,88.20
2019-06-08T04:50:21.655Z,87.60
2019-06-08T04:52:39.062Z,86.80
2019-06-08T04:55:08.365Z,86.50
2019-06-08T04:57:39.218Z,86.00
2019-06-08T05:00:13.184Z,85.70
2019-06-08T05:02:41.508Z,85.20
2019-06-08T05:05:09.702Z,84.50
2019-06-08T05:07:39.263Z,84.10
2019-06-08T05:10:08.999Z,83.60
2019-06-08T05:12:39.190Z,83.30
2019-06-08T05:15:09.926Z,82.60
2019-06-08T05:17:39.296Z,82.60
2019-06-08T05:20:08.423Z,81.50
2019-06-08T05:22:37.066Z,81.70
2019-06-08T05:25:08.897Z,81.70
2019-06-08T05:27:37.614Z,81.70
2019-06-08T05:30:08.644Z,81.40
2019-06-08T05:32:37.351Z,81.20
2019-06-08T05:35:06.947Z,81.20
2019-06-08T05:37:35.651Z,80.60
2019-06-08T05:40:05.923Z,79.60
2019-06-08T05:42:34.538Z,79.40
2019-06-08T05:45:04.438Z,80.00
2019-06-08T05:47:33.150Z,79.70
2019-06-08T05:50:01.832Z,79.60
2019-06-08T05:52:30.536Z,79.00
2019-06-08T05:54:59.164Z,79.00
2019-06-08T05:57:27.906Z,78.40
2019-06-08T05:59:56.615Z,78.80
2019-06-08T06:02:25.532Z,78.40
2019-06-08T06:04:54.322Z,77.90
2019-06-08T06:07:22.975Z,77.40
2019-06-08T06:09:51.671Z,77.30
2019-06-08T06:12:20.300Z,77.20
2019-06-08T06:14:49.127Z,76.80
2019-06-08T06:17:17.823Z,76.60
2019-06-08T06:19:47.308Z,74.80
2019-06-08T06:22:15.994Z,74.90
2019-06-08T06:24:45.510Z,74.90
2019-06-08T06:27:14.275Z,74.60
2019-06-08T06:29:43.483Z,74.40
2019-06-08T06:32:12.300Z,74.00
2019-06-08T06:34:41.952Z,73.60
2019-06-08T06:37:10.755Z,73.60
2019-06-08T06:39:39.355Z,73.50
2019-06-08T06:42:08.066Z,73.50
2019-06-08T06:44:36.776Z,71.90
2019-06-08T06:47:05.415Z,71.70
2019-06-08T06:49:34.010Z,72.10
2019-06-08T06:52:02.651Z,71.00
2019-06-08T06:54:31.277Z,71.00
2019-06-08T06:56:59.981Z,70.70
2019-06-08T06:59:28.651Z,70.80
2019-06-08T07:01:57.781Z,70.30
2019-06-08T07:04:26.589Z,69.70
2019-06-08T07:06:55.263Z,69.00
2019-06-08T07:09:23.862Z,69.50
2019-06-08T07:11:53.138Z,68.70
2019-06-08T07:14:21.768Z,69.20
2019-06-08T07:16:50.438Z,70.00
2019-06-08T07:19:19.104Z,70.20
2019-06-08T07:21:48.329Z,70.00
2019-06-08T07:24:17.111Z,69.60
2019-06-08T07:26:46.354Z,69.70
2019-06-08T07:29:15.022Z,69.80
2019-06-08T07:31:43.669Z,69.40
2019-06-08T07:34:12.374Z,68.80
2019-06-08T07:36:41.070Z,68.70
2019-06-08T07:39:09.719Z,69.70
2019-06-08T07:41:38.389Z,69.60
2019-06-08T07:44:07.111Z,68.00
2019-06-08T07:46:35.781Z,69.10
2019-06-08T07:49:04.486Z,69.90
2019-06-08T07:51:33.087Z,69.00
2019-06-08T07:54:01.714Z,69.60
2019-06-08T07:56:30.329Z,69.90
2019-06-08T07:58:59.165Z,69.40
2019-06-08T08:01:36.348Z,69.90
2019-06-08T08:03:58.429Z,69.50
2019-06-08T08:06:30.205Z,69.50
2019-06-08T08:08:58.787Z,70.40
2019-06-08T08:11:27.715Z,69.50
2019-06-08T08:13:57.484Z,69.30
2019-06-08T08:16:26.337Z,69.30
2019-06-08T08:18:55.538Z,69.90
2019-06-08T08:21:26.388Z,69.50
2019-06-08T08:23:55.912Z,69.70
2019-06-08T08:26:27.157Z,70.00
2019-06-08T08:28:59.666Z,68.70
2019-06-08T08:31:27.835Z,68.80
2019-06-08T08:34:00.872Z,68.70
2019-06-08T08:36:28.904Z,68.50
2019-06-08T08:39:00.564Z,68.90
2019-06-08T08:41:27.920Z,67.70
2019-06-08T08:44:00.809Z,68.00
2019-06-08T08:46:28.612Z,68.00
2019-06-08T08:49:06.025Z,66.70
2019-06-08T08:51:28.101Z,67.50
2019-06-08T08:54:03.023Z,67.20
2019-06-08T08:56:27.999Z,66.20
2019-06-08T08:58:59.255Z,66.20
2019-06-08T09:01:28.895Z,66.50
2019-06-08T09:04:01.694Z,66.30
2019-06-08T09:06:28.094Z,65.20
2019-06-08T09:09:00.828Z,65.20
2019-06-08T09:11:28.862Z,65.20
2019-06-08T09:14:02.504Z,63.50
2019-06-08T09:16:28.745Z,62.60
2019-06-08T09:19:01.071Z,61.80
2019-06-08T09:21:28.232Z,62.00
2019-06-08T09:24:00.701Z,62.00
2019-06-08T09:26:28.766Z,61.70
2019-06-08T09:29:03.348Z,61.40
2019-06-08T09:31:31.117Z,62.20
2019-06-08T09:34:09.147Z,62.60
2019-06-08T09:36:30.251Z,61.80
2019-06-08T09:39:02.707Z,61.50
2019-06-08T09:41:31.245Z,61.20
2019-06-08T09:44:02.355Z,61.10
2019-06-08T09:46:29.941Z,59.60
2019-06-08T09:49:05.864Z,59.50
2019-06-08T09:51:29.052Z,59.40
2019-06-08T09:54:02.086Z,60.90
2019-06-08T09:56:28.421Z,59.90
2019-06-08T09:59:01.320Z,60.00
2019-06-08T10:01:28.689Z,59.20
2019-06-08T10:04:00.809Z,59.20
2019-06-08T10:06:27.961Z,58.70
2019-06-08T10:08:56.710Z,57.40
2019-06-08T10:11:27.886Z,56.80
2019-06-08T10:13:59.465Z,57.60
2019-06-08T10:16:27.901Z,57.10
2019-06-08T10:18:57.666Z,55.90
2019-06-08T10:21:28.404Z,55.00
2019-06-08T10:23:59.770Z,53.70
2019-06-08T10:26:28.121Z,52.70
2019-06-08T10:29:00.321Z,52.70
2019-06-08T10:31:36.415Z,52.60
2019-06-08T10:34:00.576Z,50.60
2019-06-08T10:36:28.506Z,50.00
2019-06-08T10:39:01.826Z,49.30
2019-06-08T10:41:27.904Z,49.60
2019-06-08T10:43:57.143Z,50.10
2019-06-08T10:46:26.087Z,48.80
2019-06-08T10:48:54.765Z,47.70
2019-06-08T10:51:23.567Z,47.20
2019-06-08T10:53:53.548Z,47.20
2019-06-08T10:56:22.624Z,47.80
2019-06-08T10:58:51.357Z,51.70
2019-06-08T11:01:20.087Z,50.10
2019-06-08T11:03:49.001Z,45.50
2019-06-08T11:06:18.742Z,45.30
2019-06-08T11:08:47.837Z,49.50
2019-06-08T11:11:19.558Z,51.00
2019-06-08T11:13:50.078Z,50.60
2019-06-08T11:16:17.997Z,49.50
2019-06-08T11:18:50.524Z,49.80
2019-06-08T11:21:18.775Z,49.90
2019-06-08T11:24:04.563Z,51.30
2019-06-08T11:26:23.808Z,50.70
2019-06-08T11:28:51.263Z,50.60
2019-06-08T11:31:19.851Z,50.30
2019-06-08T11:33:49.147Z,48.80
2019-06-08T11:36:18.836Z,48.90
2019-06-08T11:38:48.053Z,49.80
2019-06-08T11:41:19.067Z,48.80
2019-06-08T11:43:47.072Z,48.50
2019-06-08T11:46:19.048Z,48.70
2019-06-08T11:48:48.385Z,47.60
2019-06-08T11:51:16.577Z,44.70
2019-06-08T11:53:48.227Z,46.60
2019-06-08T11:56:18.258Z,46.80
2019-06-08T11:58:48.586Z,47.20
2019-06-08T12:01:18.583Z,46.80
2019-06-08T12:03:48.367Z,45.00
2019-06-08T12:06:18.494Z,44.00
2019-06-08T12:08:47.447Z,44.50
2019-06-08T12:11:20.718Z,46.30
2019-06-08T12:13:47.398Z,46.60
2019-06-08T12:16:21.615Z,48.30
2019-06-08T12:18:49.280Z,48.50
2019-06-08T12:21:18.592Z,47.50
2019-06-08T12:23:47.488Z,48.70
2019-06-08T12:26:16.180Z,48.30
2019-06-08T12:28:44.786Z,48.60
2019-06-08T12:31:17.645Z,47.70
2019-06-08T12:33:43.756Z,46.60
2019-06-08T12:36:15.385Z,46.80
2019-06-08T12:38:42.983Z,46.50
2019-06-08T12:41:12.736Z,46.40
2019-06-08T12:43:42.036Z,46.70
2019-06-08T12:46:12.807Z,46.40
2019-06-08T12:48:41.258Z,45.00
2019-06-08T12:51:11.657Z,44.50
2019-06-08T12:53:40.230Z,42.30
2019-06-08T12:56:10.626Z,40.70
2019-06-08T12:58:39.261Z,39.40
2019-06-08T13:01:09.497Z,39.20
2019-06-08T13:03:38.297Z,39.30
2019-06-08T13:06:07.869Z,40.10
2019-06-08T13:08:37.276Z,40.90
2019-06-08T13:11:08.155Z,39.80
2019-06-08T13:13:37.758Z,41.00
2019-06-08T13:16:06.728Z,39.10
2019-06-08T13:18:35.443Z,38.10
2019-06-08T13:21:18.733Z,35.70
2019-06-08T13:23:34.492Z,35.70
2019-06-08T13:26:03.169Z,35.10
2019-06-08T13:28:31.793Z,34.20
2019-06-08T13:31:00.585Z,34.60
2019-06-08T13:33:29.182Z,34.30
2019-06-08T13:35:58.140Z,33.00
2019-06-08T13:38:27.802Z,32.30
2019-06-08T13:40:58.795Z,33.20
2019-06-08T13:43:27.021Z,35.90
2019-06-08T13:45:58.073Z,36.70
2019-06-08T13:48:26.095Z,38.40
2019-06-08T13:50:54.801Z,40.90
2019-06-08T13:53:28.489Z,42.60
2019-06-08T13:55:56.734Z,43.70
2019-06-08T13:58:29.778Z,45.20
2019-06-08T14:00:56.758Z,46.50
2019-06-08T14:03:27.544Z,46.70
2019-06-08T14:05:55.395Z,48.40
2019-06-08T14:08:25.547Z,49.20
2019-06-08T14:10:54.837Z,49.40
2019-06-08T14:13:30.232Z,49.90
2019-06-08T14:15:53.858Z,50.00
2019-06-08T14:18:26.317Z,48.90
2019-06-08T14:20:54.644Z,49.80
2019-06-08T14:23:24.542Z,49.70
2019-06-08T14:25:56.999Z,49.80
2019-06-08T14:28:24.832Z,51.40
2019-06-08T14:30:54.445Z,51.40
2019-06-08T14:33:26.897Z,52.10
2019-06-08T14:35:56.098Z,53.20
2019-06-08T14:38:28.013Z,52.60
2019-06-08T14:40:54.127Z,53.00
2019-06-08T14:43:23.072Z,52.30
2019-06-08T14:45:51.783Z,52.90
2019-06-08T14:48:25.132Z,53.20
2019-06-08T14:50:50.869Z,53.50
2019-06-08T14:53:20.406Z,53.70
2019-06-08T14:56:02.185Z,53.60
2019-06-08T14:58:24.061Z,53.60
2019-06-08T15:00:50.673Z,54.20
2019-06-08T15:03:19.772Z,54.00
2019-06-08T15:05:49.854Z,54.00
2019-06-08T15:08:19.564Z,53.60
2019-06-08T15:10:49.822Z,52.90
2019-06-08T15:13:20.285Z,53.10
2019-06-08T15:15:48.962Z,52.60
2019-06-08T15:18:18.556Z,53.10
2019-06-08T15:20:48.166Z,52.80
2019-06-08T15:23:21.244Z,53.30
2019-06-08T15:25:47.350Z,52.70
2019-06-08T15:28:18.106Z,53.20
2019-06-08T15:30:46.394Z,53.70
2019-06-08T15:33:15.010Z,53.00
2019-06-08T15:35:43.697Z,53.50
2019-06-08T15:38:12.450Z,52.50
2019-06-08T15:40:41.108Z,53.20
2019-06-08T15:43:09.746Z,53.40
2019-06-08T15:45:38.379Z,53.40
2019-06-08T15:48:08.040Z,54.00
2019-06-08T15:50:37.863Z,53.50
2019-06-08T15:53:08.315Z,54.10
2019-06-08T15:55:38.200Z,53.90
2019-06-08T15:58:08.898Z,53.80
2019-06-08T16:00:38.372Z,54.10
2019-06-08T16:03:07.006Z,54.10
2019-06-08T16:05:35.728Z,54.20
2019-06-08T16:08:04.370Z,53.90
2019-06-08T16:10:34.258Z,53.70
2019-06-08T16:13:02.985Z,54.30
2019-06-08T16:15:33.073Z,54.10
2019-06-08T16:18:02.128Z,54.20
2019-06-08T16:20:31.537Z,54.40
2019-06-08T16:23:00.330Z,54.80
2019-06-08T16:25:29.611Z,54.10
2019-06-08T16:28:00.089Z,54.00
2019-06-08T16:30:28.933Z,54.10
2019-06-08T16:32:57.555Z,53.90
2019-06-08T16:35:28.009Z,54.00
2019-06-08T16:37:56.590Z,54.20
2019-06-08T16:40:25.279Z,54.70
2019-06-08T16:42:53.969Z,55.00
2019-06-08T16:45:22.670Z,55.00
2019-06-08T16:47:51.283Z,55.90
2019-06-08T16:50:24.465Z,55.10
2019-06-08T16:52:50.377Z,55.40
2019-06-08T16:55:19.083Z,55.50
2019-06-08T16:57:47.764Z,56.40
2019-06-08T17:00:36.500Z,56.60
2019-06-08T17:02:46.899Z,56.80
2019-06-08T17:05:15.520Z,57.10
2019-06-08T17:07:44.214Z,57.40
2019-06-08T17:10:13.803Z,57.50
2019-06-08T17:12:42.411Z,57.60
2019-06-08T17:15:11.433Z,57.40
2019-06-08T17:17:40.542Z,58.00
2019-06-08T17:20:09.431Z,57.90
2019-06-08T17:22:38.803Z,58.10
2019-06-08T17:25:12.706Z,58.40
2019-06-08T17:27:41.451Z,58.70
2019-06-08T17:30:10.956Z,58.90
2019-06-08T17:32:40.535Z,59.00
2019-06-08T17:35:09.866Z,58.90
2019-06-08T17:37:39.969Z,59.20
2019-06-08T17:40:09.139Z,59.50
2019-06-08T17:42:37.771Z,59.50
2019-06-08T17:45:07.851Z,59.60
2019-06-08T17:47:36.548Z,60.00
2019-06-08T17:50:07.940Z,59.90
2019-06-08T17:52:37.065Z,60.00
2019-06-08T17:55:07.790Z,61.00
2019-06-08T17:57:46.518Z,60.50
2019-06-08T18:00:08.589Z,60.60
2019-06-08T18:02:40.249Z,60.50
2019-06-08T18:05:08.537Z,61.00
2019-06-08T18:07:39.024Z,61.00
2019-06-08T18:10:07.688Z,61.30
2019-06-08T18:12:39.226Z,61.20
2019-06-08T18:15:07.860Z,61.10
2019-06-08T18:17:41.617Z,61.20
2019-06-08T18:20:14.025Z,61.60
2019-06-08T18:22:44.347Z,61.80
2019-06-08T18:25:13.830Z,61.90
2019-06-08T18:27:57.990Z,62.20
2019-06-08T18:30:14.383Z,62.40
2019-06-08T18:32:44.098Z,62.60
2019-06-08T18:35:15.118Z,62.80
2019-06-08T18:37:44.168Z,62.90
2019-06-08T18:40:14.522Z,63.30
2019-06-08T18:42:44.237Z,63.30
2019-06-08T18:45:18.028Z,63.80
2019-06-08T18:47:48.490Z,63.10
2019-06-08T18:50:17.431Z,64.00
2019-06-08T18:52:47.323Z,64.10
2019-06-08T18:55:18.332Z,64.20
2019-06-08T18:57:49.054Z,64.20
2019-06-08T19:00:19.686Z,63.70
2019-06-08T19:02:52.245Z,64.30
2019-06-08T19:05:21.318Z,64.20
2019-06-08T19:07:50.618Z,64.50
2019-06-08T19:10:31.429Z,64.50
2019-06-08T19:13:00.172Z,64.70
2019-06-08T19:15:33.728Z,64.50
2019-06-08T19:18:02.413Z,64.60
2019-06-08T19:20:31.126Z,64.50
2019-06-08T19:22:59.772Z,64.40
2019-06-08T19:25:28.458Z,64.40
2019-06-08T19:27:57.933Z,65.10
2019-06-08T19:30:28.126Z,64.20
2019-06-08T19:32:57.895Z,64.20
2019-06-08T19:35:27.412Z,64.40
2019-06-08T19:37:58.176Z,64.40
2019-06-08T19:40:27.163Z,64.50
2019-06-08T19:43:00.013Z,64.40
2019-06-08T19:45:27.679Z,64.30
2019-06-08T19:47:57.764Z,64.90
2019-06-08T19:50:28.643Z,64.00
2019-06-08T19:52:58.092Z,64.50
2019-06-08T19:55:27.028Z,64.30
2019-06-08T19:57:57.588Z,63.40
2019-06-08T20:00:27.957Z,63.20
2019-06-08T20:02:58.278Z,63.20
2019-06-08T20:05:28.494Z,63.00
2019-06-08T20:07:57.623Z,62.60
2019-06-08T20:10:28.046Z,62.50
2019-06-08T20:12:57.929Z,62.00
2019-06-08T20:15:26.677Z,62.20
2019-06-08T20:17:57.465Z,61.80
2019-06-08T20:20:27.713Z,61.50
2019-06-08T20:22:58.362Z,61.40
2019-06-08T20:25:31.289Z,61.20
2019-06-08T20:27:59.923Z,60.90
2019-06-08T20:30:28.754Z,60.40
2019-06-08T20:32:57.714Z,60.50
2019-06-08T20:35:28.042Z,60.30
2019-06-08T20:37:57.873Z,60.60
2019-06-08T20:40:27.971Z,61.10
2019-06-08T20:42:57.716Z,60.30
2019-06-08T20:45:28.064Z,60.50
2019-06-08T20:47:58.405Z,59.40
2019-06-08T20:50:27.331Z,59.70
2019-06-08T20:52:57.646Z,58.90
2019-06-08T20:55:28.238Z,59.00
2019-06-08T20:57:57.463Z,58.80
2019-06-08T21:00:26.544Z,58.60
2019-06-08T21:03:01.742Z,58.60
2019-06-08T21:05:27.620Z,58.50
2019-06-08T21:07:58.713Z,58.50
2019-06-08T21:10:28.219Z,58.90
2019-06-08T21:12:58.669Z,58.80
2019-06-08T21:15:27.583Z,58.50
2019-06-08T21:17:56.385Z,58.50
2019-06-08T21:20:25.049Z,58.30
2019-06-08T21:22:55.036Z,58.30
2019-06-08T21:25:24.017Z,58.60
2019-06-08T21:27:54.003Z,58.40
2019-06-08T21:30:24.725Z,57.90
2019-06-08T21:32:55.843Z,58.00
2019-06-08T21:35:23.548Z,58.00
2019-06-08T21:37:53.351Z,58.10
2019-06-08T21:40:22.632Z,58.00
2019-06-08T21:42:52.250Z,58.00
2019-06-08T21:45:21.623Z,57.80
2019-06-08T21:47:51.746Z,57.80
2019-06-08T21:50:20.566Z,57.90
2019-06-08T21:52:51.481Z,57.90
2019-06-08T21:55:19.579Z,57.90
2019-06-08T21:57:51.103Z,58.10
2019-06-08T22:00:38.147Z,58.10
2019-06-08T22:02:51.747Z,58.30
2019-06-08T22:05:20.467Z,58.40
2019-06-08T22:07:50.107Z,58.70
2019-06-08T22:10:20.497Z,58.80
2019-06-08T22:12:50.745Z,59.10
2019-06-08T22:15:19.913Z,59.20
2019-06-08T22:17:48.560Z,59.50
2019-06-08T22:20:18.702Z,59.50
2019-06-08T22:22:47.546Z,59.70
2019-06-08T22:25:17.552Z,59.70
2019-06-08T22:27:46.470Z,59.80
2019-06-08T22:30:32.423Z,60.70
2019-06-08T22:32:47.371Z,60.20
2019-06-08T22:35:16.210Z,60.40
2019-06-08T22:37:44.866Z,60.50
2019-06-08T22:40:13.807Z,60.70
2019-06-08T22:42:42.552Z,60.80
2019-06-08T22:45:11.626Z,61.10
2019-06-08T22:47:40.503Z,61.10
2019-06-08T22:50:09.867Z,61.40
2019-06-08T22:52:38.567Z,61.50
2019-06-08T22:55:10.840Z,61.50
2019-06-08T22:57:38.205Z,61.90
2019-06-08T23:00:14.539Z,62.00
2019-06-08T23:02:38.555Z,62.10
2019-06-08T23:05:08.926Z,62.50
2019-06-08T23:07:38.031Z,62.70
2019-06-08T23:10:09.623Z,62.90
2019-06-08T23:12:38.530Z,63.10
2019-06-08T23:15:08.702Z,63.30
2019-06-08T23:17:38.718Z,63.40
2019-06-08T23:20:08.900Z,63.80
2019-06-08T23:22:38.408Z,63.80
2019-06-08T23:25:09.457Z,64.00
2019-06-08T23:27:38.226Z,64.30
2019-06-08T23:30:10.172Z,64.20
2019-06-08T23:32:39.442Z,64.40
2019-06-08T23:35:09.461Z,64.60
2019-06-08T23:37:38.408Z,65.20
2019-06-08T23:40:07.768Z,65.20
2019-06-08T23:42:38.279Z,65.40
2019-06-08T23:45:10.384Z,65.50
2019-06-08T23:47:38.523Z,65.60
2019-06-08T23:50:11.022Z,65.90
2019-06-08T23:52:38.431Z,66.00
2019-06-08T23:55:11.428Z,66.30
2019-06-08T23:57:38.374Z,66.60
